sensor_id;sensor_type;location;lat;lon;timestamp;P1;durP1;ratioP1;P2;durP2;ratioP2
18711;SDS011;9485;49.386;8.674;2023-12-04T00:03:17;9.43;;;6.30;;
18711;SDS011;9485;49.386;8.674;2023-12-04T00:08:39;9.90;;;6.20;;
18711;SDS011;9485;49.386;8.674;2023-12-04T00:14:00;10.13;;;6.37;;
18711;SDS011;9485;49.386;8.674;2023-12-04T00:19:21;8.03;;;5.43;;
18711;SDS011;9485;49.386;8.674;2023-12-04T00:24:43;10.27;;;6.00;;
18711;SDS011;9485;49.386;8.674;2023-12-04T00:30:04;7.30;;;5.20;;
18711;SDS011;9485;49.386;8.674;2023-12-04T00:35:28;9.27;;;5.87;;
18711;SDS011;9485;49.386;8.674;2023-12-04T00:40:51;8.13;;;5.77;;
18711;SDS011;9485;49.386;8.674;2023-12-04T00:46:13;8.73;;;5.90;;
18711;SDS011;9485;49.386;8.674;2023-12-04T00:51:36;11.47;;;5.73;;
18711;SDS011;9485;49.386;8.674;2023-12-04T00:56:59;7.97;;;5.63;;
18711;SDS011;9485;49.386;8.674;2023-12-04T01:02:20;8.20;;;5.63;;
18711;SDS011;9485;49.386;8.674;2023-12-04T01:07:40;7.27;;;5.20;;
18711;SDS011;9485;49.386;8.674;2023-12-04T01:13:02;8.00;;;5.47;;
18711;SDS011;9485;49.386;8.674;2023-12-04T01:18:22;8.57;;;5.73;;
18711;SDS011;9485;49.386;8.674;2023-12-04T01:23:43;6.60;;;5.00;;
18711;SDS011;9485;49.386;8.674;2023-12-04T01:29:05;7.17;;;5.37;;
18711;SDS011;9485;49.386;8.674;2023-12-04T01:34:26;7.23;;;5.07;;
18711;SDS011;9485;49.386;8.674;2023-12-04T01:39:46;8.87;;;5.70;;
18711;SDS011;9485;49.386;8.674;2023-12-04T01:45:09;7.63;;;5.13;;
18711;SDS011;9485;49.386;8.674;2023-12-04T01:50:29;5.90;;;4.57;;
18711;SDS011;9485;49.386;8.674;2023-12-04T01:55:50;8.57;;;5.63;;
18711;SDS011;9485;49.386;8.674;2023-12-04T02:01:12;6.93;;;4.97;;
18711;SDS011;9485;49.386;8.674;2023-12-04T02:06:34;8.57;;;5.30;;
18711;SDS011;9485;49.386;8.674;2023-12-04T02:11:55;8.23;;;4.80;;
18711;SDS011;9485;49.386;8.674;2023-12-04T02:17:17;5.93;;;4.30;;
18711;SDS011;9485;49.386;8.674;2023-12-04T02:22:40;6.97;;;4.87;;
18711;SDS011;9485;49.386;8.674;2023-12-04T02:28:04;6.20;;;4.30;;
18711;SDS011;9485;49.386;8.674;2023-12-04T02:33:29;7.70;;;4.70;;
18711;SDS011;9485;49.386;8.674;2023-12-04T02:38:53;6.37;;;4.23;;
18711;SDS011;9485;49.386;8.674;2023-12-04T02:44:15;8.57;;;4.87;;
18711;SDS011;9485;49.386;8.674;2023-12-04T02:49:36;6.80;;;5.00;;
18711;SDS011;9485;49.386;8.674;2023-12-04T02:54:57;7.60;;;5.13;;
18711;SDS011;9485;49.386;8.674;2023-12-04T03:00:19;6.00;;;4.70;;
18711;SDS011;9485;49.386;8.674;2023-12-04T03:05:40;6.00;;;4.33;;
18711;SDS011;9485;49.386;8.674;2023-12-04T03:11:01;6.67;;;4.77;;
18711;SDS011;9485;49.386;8.674;2023-12-04T03:16:24;6.73;;;4.80;;
18711;SDS011;9485;49.386;8.674;2023-12-04T03:21:44;8.07;;;4.93;;
18711;SDS011;9485;49.386;8.674;2023-12-04T03:27:04;6.57;;;4.90;;
18711;SDS011;9485;49.386;8.674;2023-12-04T03:32:26;6.60;;;4.90;;
18711;SDS011;9485;49.386;8.674;2023-12-04T03:37:47;8.30;;;4.57;;
18711;SDS011;9485;49.386;8.674;2023-12-04T03:43:08;6.30;;;4.37;;
18711;SDS011;9485;49.386;8.674;2023-12-04T03:48:30;5.67;;;4.17;;
18711;SDS011;9485;49.386;8.674;2023-12-04T03:53:51;8.40;;;5.23;;
18711;SDS011;9485;49.386;8.674;2023-12-04T03:59:12;6.70;;;4.40;;
18711;SDS011;9485;49.386;8.674;2023-12-04T04:04:34;6.77;;;4.27;;
18711;SDS011;9485;49.386;8.674;2023-12-04T04:09:55;6.43;;;4.13;;
18711;SDS011;9485;49.386;8.674;2023-12-04T04:15:16;5.57;;;3.97;;
18711;SDS011;9485;49.386;8.674;2023-12-04T04:20:38;4.30;;;3.80;;
18711;SDS011;9485;49.386;8.674;2023-12-04T04:25:58;5.43;;;3.70;;
18711;SDS011;9485;49.386;8.674;2023-12-04T04:31:19;5.40;;;3.20;;
18711;SDS011;9485;49.386;8.674;2023-12-04T04:36:42;4.40;;;3.53;;
18711;SDS011;9485;49.386;8.674;2023-12-04T04:42:03;3.87;;;3.03;;
18711;SDS011;9485;49.386;8.674;2023-12-04T04:47:24;5.70;;;3.57;;
18711;SDS011;9485;49.386;8.674;2023-12-04T04:52:46;5.83;;;3.67;;
18711;SDS011;9485;49.386;8.674;2023-12-04T04:58:06;4.90;;;3.47;;
18711;SDS011;9485;49.386;8.674;2023-12-04T05:03:29;7.57;;;4.40;;
18711;SDS011;9485;49.386;8.674;2023-12-04T05:08:52;4.63;;;3.50;;
18711;SDS011;9485;49.386;8.674;2023-12-04T05:14:12;5.60;;;3.97;;
18711;SDS011;9485;49.386;8.674;2023-12-04T05:19:33;4.87;;;3.30;;
18711;SDS011;9485;49.386;8.674;2023-12-04T05:24:55;4.50;;;3.50;;
18711;SDS011;9485;49.386;8.674;2023-12-04T05:30:15;5.13;;;3.87;;
18711;SDS011;9485;49.386;8.674;2023-12-04T05:35:36;4.10;;;3.17;;
18711;SDS011;9485;49.386;8.674;2023-12-04T05:40:58;4.57;;;3.50;;
18711;SDS011;9485;49.386;8.674;2023-12-04T05:46:21;4.50;;;3.60;;
18711;SDS011;9485;49.386;8.674;2023-12-04T05:51:42;4.70;;;3.13;;
18711;SDS011;9485;49.386;8.674;2023-12-04T05:57:04;4.50;;;3.60;;
18711;SDS011;9485;49.386;8.674;2023-12-04T06:02:25;8.10;;;4.37;;
18711;SDS011;9485;49.386;8.674;2023-12-04T06:07:46;5.90;;;4.07;;
18711;SDS011;9485;49.386;8.674;2023-12-04T06:13:08;5.07;;;3.73;;
18711;SDS011;9485;49.386;8.674;2023-12-04T06:18:28;5.67;;;3.97;;
18711;SDS011;9485;49.386;8.674;2023-12-04T06:23:49;4.87;;;3.93;;
18711;SDS011;9485;49.386;8.674;2023-12-04T06:29:12;5.53;;;3.83;;
18711;SDS011;9485;49.386;8.674;2023-12-04T06:34:33;6.33;;;3.77;;
18711;SDS011;9485;49.386;8.674;2023-12-04T06:39:55;4.17;;;3.73;;
18711;SDS011;9485;49.386;8.674;2023-12-04T06:45:23;4.73;;;3.23;;
18711;SDS011;9485;49.386;8.674;2023-12-04T06:50:45;5.47;;;4.03;;
18711;SDS011;9485;49.386;8.674;2023-12-04T06:56:06;6.47;;;4.03;;
18711;SDS011;9485;49.386;8.674;2023-12-04T07:01:29;5.30;;;3.90;;
18711;SDS011;9485;49.386;8.674;2023-12-04T07:06:50;5.33;;;3.77;;
18711;SDS011;9485;49.386;8.674;2023-12-04T07:12:10;5.17;;;3.27;;
18711;SDS011;9485;49.386;8.674;2023-12-04T07:17:32;6.03;;;3.10;;
18711;SDS011;9485;49.386;8.674;2023-12-04T07:22:54;5.63;;;3.70;;
18711;SDS011;9485;49.386;8.674;2023-12-04T07:28:16;3.87;;;3.10;;
18711;SDS011;9485;49.386;8.674;2023-12-04T07:33:38;4.70;;;3.27;;
18711;SDS011;9485;49.386;8.674;2023-12-04T07:38:58;4.53;;;3.70;;
18711;SDS011;9485;49.386;8.674;2023-12-04T07:44:19;4.07;;;3.43;;
18711;SDS011;9485;49.386;8.674;2023-12-04T07:49:41;7.20;;;4.00;;
18711;SDS011;9485;49.386;8.674;2023-12-04T07:55:01;5.27;;;3.90;;
18711;SDS011;9485;49.386;8.674;2023-12-04T08:00:22;5.57;;;4.03;;
18711;SDS011;9485;49.386;8.674;2023-12-04T08:05:46;8.07;;;4.57;;
18711;SDS011;9485;49.386;8.674;2023-12-04T08:11:06;8.67;;;5.03;;
18711;SDS011;9485;49.386;8.674;2023-12-04T08:16:29;6.13;;;4.53;;
18711;SDS011;9485;49.386;8.674;2023-12-04T08:21:51;6.00;;;3.60;;
18711;SDS011;9485;49.386;8.674;2023-12-04T08:27:12;4.37;;;3.30;;
18711;SDS011;9485;49.386;8.674;2023-12-04T08:32:32;4.90;;;3.30;;
18711;SDS011;9485;49.386;8.674;2023-12-04T08:37:54;5.87;;;3.87;;
18711;SDS011;9485;49.386;8.674;2023-12-04T08:43:15;4.27;;;3.10;;
18711;SDS011;9485;49.386;8.674;2023-12-04T08:48:37;4.60;;;3.50;;
18711;SDS011;9485;49.386;8.674;2023-12-04T08:53:59;5.23;;;3.37;;
18711;SDS011;9485;49.386;8.674;2023-12-04T08:59:19;4.67;;;3.90;;
18711;SDS011;9485;49.386;8.674;2023-12-04T09:04:40;3.97;;;3.57;;
18711;SDS011;9485;49.386;8.674;2023-12-04T09:10:02;3.53;;;3.10;;
18711;SDS011;9485;49.386;8.674;2023-12-04T09:15:24;4.40;;;3.63;;
18711;SDS011;9485;49.386;8.674;2023-12-04T09:20:45;4.67;;;3.90;;
18711;SDS011;9485;49.386;8.674;2023-12-04T09:26:07;4.80;;;3.20;;
18711;SDS011;9485;49.386;8.674;2023-12-04T09:31:27;6.23;;;4.40;;
18711;SDS011;9485;49.386;8.674;2023-12-04T09:36:48;5.03;;;3.77;;
18711;SDS011;9485;49.386;8.674;2023-12-04T09:42:12;5.10;;;3.60;;
18711;SDS011;9485;49.386;8.674;2023-12-04T09:47:34;5.77;;;4.07;;
18711;SDS011;9485;49.386;8.674;2023-12-04T09:52:55;4.03;;;2.83;;
18711;SDS011;9485;49.386;8.674;2023-12-04T09:58:21;3.80;;;2.90;;
18711;SDS011;9485;49.386;8.674;2023-12-04T10:03:48;4.23;;;3.50;;
18711;SDS011;9485;49.386;8.674;2023-12-04T10:09:10;5.07;;;3.50;;
18711;SDS011;9485;49.386;8.674;2023-12-04T10:14:33;4.47;;;3.37;;
18711;SDS011;9485;49.386;8.674;2023-12-04T10:19:55;6.50;;;3.57;;
18711;SDS011;9485;49.386;8.674;2023-12-04T10:25:30;4.93;;;3.63;;
18711;SDS011;9485;49.386;8.674;2023-12-04T10:30:52;6.13;;;3.80;;
18711;SDS011;9485;49.386;8.674;2023-12-04T10:36:48;6.13;;;3.83;;
18711;SDS011;9485;49.386;8.674;2023-12-04T10:42:11;5.13;;;3.70;;
18711;SDS011;9485;49.386;8.674;2023-12-04T10:47:33;7.73;;;3.90;;
18711;SDS011;9485;49.386;8.674;2023-12-04T10:52:56;7.33;;;4.10;;
18711;SDS011;9485;49.386;8.674;2023-12-04T10:58:17;6.10;;;4.17;;
18711;SDS011;9485;49.386;8.674;2023-12-04T11:03:43;6.40;;;3.60;;
18711;SDS011;9485;49.386;8.674;2023-12-04T11:09:07;4.63;;;3.63;;
18711;SDS011;9485;49.386;8.674;2023-12-04T11:14:33;5.50;;;3.73;;
18711;SDS011;9485;49.386;8.674;2023-12-04T11:20:04;4.97;;;4.20;;
18711;SDS011;9485;49.386;8.674;2023-12-04T11:25:35;6.67;;;4.07;;
18711;SDS011;9485;49.386;8.674;2023-12-04T11:30:56;6.33;;;4.33;;
18711;SDS011;9485;49.386;8.674;2023-12-04T11:36:21;6.17;;;4.10;;
18711;SDS011;9485;49.386;8.674;2023-12-04T11:41:42;6.10;;;4.87;;
18711;SDS011;9485;49.386;8.674;2023-12-04T11:47:04;5.40;;;4.50;;
18711;SDS011;9485;49.386;8.674;2023-12-04T11:52:33;5.70;;;4.40;;
18711;SDS011;9485;49.386;8.674;2023-12-04T11:57:54;8.23;;;4.50;;
18711;SDS011;9485;49.386;8.674;2023-12-04T12:03:16;6.87;;;4.53;;
18711;SDS011;9485;49.386;8.674;2023-12-04T12:08:38;4.67;;;3.63;;
18711;SDS011;9485;49.386;8.674;2023-12-04T12:13:59;5.80;;;4.07;;
18711;SDS011;9485;49.386;8.674;2023-12-04T12:19:20;5.57;;;4.60;;
18711;SDS011;9485;49.386;8.674;2023-12-04T12:24:43;8.13;;;4.43;;
18711;SDS011;9485;49.386;8.674;2023-12-04T12:30:04;5.90;;;4.37;;
18711;SDS011;9485;49.386;8.674;2023-12-04T12:35:26;6.50;;;4.37;;
18711;SDS011;9485;49.386;8.674;2023-12-04T12:40:49;4.70;;;3.50;;
18711;SDS011;9485;49.386;8.674;2023-12-04T12:46:10;6.77;;;4.47;;
18711;SDS011;9485;49.386;8.674;2023-12-04T12:51:31;7.10;;;4.80;;
18711;SDS011;9485;49.386;8.674;2023-12-04T12:56:53;8.27;;;5.30;;
18711;SDS011;9485;49.386;8.674;2023-12-04T13:02:13;6.43;;;4.00;;
18711;SDS011;9485;49.386;8.674;2023-12-04T13:07:35;6.97;;;4.03;;
18711;SDS011;9485;49.386;8.674;2023-12-04T13:12:56;5.13;;;3.73;;
18711;SDS011;9485;49.386;8.674;2023-12-04T13:18:18;6.90;;;4.33;;
18711;SDS011;9485;49.386;8.674;2023-12-04T13:23:39;5.33;;;4.03;;
18711;SDS011;9485;49.386;8.674;2023-12-04T13:29:01;6.87;;;4.53;;
18711;SDS011;9485;49.386;8.674;2023-12-04T13:34:21;6.90;;;4.03;;
18711;SDS011;9485;49.386;8.674;2023-12-04T13:39:42;5.37;;;4.20;;
18711;SDS011;9485;49.386;8.674;2023-12-04T13:45:09;7.07;;;4.20;;
18711;SDS011;9485;49.386;8.674;2023-12-04T13:50:31;6.07;;;4.37;;
18711;SDS011;9485;49.386;8.674;2023-12-04T13:55:51;8.53;;;4.90;;
18711;SDS011;9485;49.386;8.674;2023-12-04T14:01:32;6.83;;;4.60;;
18711;SDS011;9485;49.386;8.674;2023-12-04T14:06:57;6.20;;;4.67;;
18711;SDS011;9485;49.386;8.674;2023-12-04T14:12:18;6.33;;;4.47;;
18711;SDS011;9485;49.386;8.674;2023-12-04T14:17:40;5.07;;;3.90;;
18711;SDS011;9485;49.386;8.674;2023-12-04T14:23:00;6.57;;;3.93;;
18711;SDS011;9485;49.386;8.674;2023-12-04T14:28:22;6.67;;;4.53;;
18711;SDS011;9485;49.386;8.674;2023-12-04T14:33:43;4.93;;;3.97;;
18711;SDS011;9485;49.386;8.674;2023-12-04T14:39:05;5.57;;;4.47;;
18711;SDS011;9485;49.386;8.674;2023-12-04T14:44:29;7.63;;;4.80;;
18711;SDS011;9485;49.386;8.674;2023-12-04T14:49:52;4.87;;;4.10;;
18711;SDS011;9485;49.386;8.674;2023-12-04T14:55:14;7.00;;;4.83;;
18711;SDS011;9485;49.386;8.674;2023-12-04T15:00:49;6.93;;;4.47;;
18711;SDS011;9485;49.386;8.674;2023-12-04T15:06:40;8.17;;;4.57;;
18711;SDS011;9485;49.386;8.674;2023-12-04T15:12:23;7.10;;;4.40;;
18711;SDS011;9485;49.386;8.674;2023-12-04T15:17:52;6.33;;;4.53;;
18711;SDS011;9485;49.386;8.674;2023-12-04T15:23:21;6.53;;;4.50;;
18711;SDS011;9485;49.386;8.674;2023-12-04T15:28:42;6.00;;;4.50;;
18711;SDS011;9485;49.386;8.674;2023-12-04T15:34:03;6.27;;;4.97;;
18711;SDS011;9485;49.386;8.674;2023-12-04T15:39:25;7.80;;;5.07;;
18711;SDS011;9485;49.386;8.674;2023-12-04T15:44:46;6.83;;;4.83;;
18711;SDS011;9485;49.386;8.674;2023-12-04T15:50:07;8.93;;;5.90;;
18711;SDS011;9485;49.386;8.674;2023-12-04T15:55:29;7.73;;;6.00;;
18711;SDS011;9485;49.386;8.674;2023-12-04T16:00:50;8.87;;;6.50;;
18711;SDS011;9485;49.386;8.674;2023-12-04T16:06:10;9.70;;;6.77;;
18711;SDS011;9485;49.386;8.674;2023-12-04T16:11:32;11.47;;;7.23;;
18711;SDS011;9485;49.386;8.674;2023-12-04T16:16:53;12.63;;;7.20;;
18711;SDS011;9485;49.386;8.674;2023-12-04T16:22:13;13.10;;;7.57;;
18711;SDS011;9485;49.386;8.674;2023-12-04T16:27:35;10.70;;;7.13;;
18711;SDS011;9485;49.386;8.674;2023-12-04T16:32:57;10.77;;;7.30;;
18711;SDS011;9485;49.386;8.674;2023-12-04T16:38:17;11.03;;;7.90;;
18711;SDS011;9485;49.386;8.674;2023-12-04T16:43:39;10.27;;;7.07;;
18711;SDS011;9485;49.386;8.674;2023-12-04T16:49:01;10.03;;;7.30;;
18711;SDS011;9485;49.386;8.674;2023-12-04T16:54:22;9.03;;;7.17;;
18711;SDS011;9485;49.386;8.674;2023-12-04T16:59:44;8.40;;;6.37;;
18711;SDS011;9485;49.386;8.674;2023-12-04T17:05:05;11.87;;;7.70;;
18711;SDS011;9485;49.386;8.674;2023-12-04T17:10:27;10.10;;;6.97;;
18711;SDS011;9485;49.386;8.674;2023-12-04T17:15:50;12.10;;;7.00;;
18711;SDS011;9485;49.386;8.674;2023-12-04T17:21:10;7.97;;;6.27;;
18711;SDS011;9485;49.386;8.674;2023-12-04T17:26:32;9.30;;;6.63;;
18711;SDS011;9485;49.386;8.674;2023-12-04T17:31:55;9.70;;;7.00;;
18711;SDS011;9485;49.386;8.674;2023-12-04T17:37:16;9.87;;;6.53;;
18711;SDS011;9485;49.386;8.674;2023-12-04T17:42:37;8.93;;;6.27;;
18711;SDS011;9485;49.386;8.674;2023-12-04T17:47:59;9.57;;;6.67;;
18711;SDS011;9485;49.386;8.674;2023-12-04T17:53:20;8.87;;;6.30;;
18711;SDS011;9485;49.386;8.674;2023-12-04T17:58:41;10.93;;;6.90;;
18711;SDS011;9485;49.386;8.674;2023-12-04T18:04:03;8.47;;;6.50;;
18711;SDS011;9485;49.386;8.674;2023-12-04T18:09:26;8.17;;;6.57;;
18711;SDS011;9485;49.386;8.674;2023-12-04T18:14:47;10.37;;;7.00;;
18711;SDS011;9485;49.386;8.674;2023-12-04T18:20:12;7.73;;;6.23;;
18711;SDS011;9485;49.386;8.674;2023-12-04T18:25:34;8.67;;;6.63;;
18711;SDS011;9485;49.386;8.674;2023-12-04T18:30:56;8.90;;;7.13;;
18711;SDS011;9485;49.386;8.674;2023-12-04T18:36:19;9.27;;;6.67;;
18711;SDS011;9485;49.386;8.674;2023-12-04T18:41:39;8.70;;;6.13;;
18711;SDS011;9485;49.386;8.674;2023-12-04T18:47:01;8.77;;;5.43;;
18711;SDS011;9485;49.386;8.674;2023-12-04T18:52:29;7.37;;;5.40;;
18711;SDS011;9485;49.386;8.674;2023-12-04T18:57:52;7.43;;;5.27;;
18711;SDS011;9485;49.386;8.674;2023-12-04T19:03:13;7.73;;;5.10;;
18711;SDS011;9485;49.386;8.674;2023-12-04T19:08:35;6.97;;;5.43;;
18711;SDS011;9485;49.386;8.674;2023-12-04T19:13:55;8.90;;;6.47;;
18711;SDS011;9485;49.386;8.674;2023-12-04T19:19:16;8.47;;;6.40;;
18711;SDS011;9485;49.386;8.674;2023-12-04T19:24:38;8.23;;;6.20;;
18711;SDS011;9485;49.386;8.674;2023-12-04T19:29:59;8.70;;;5.93;;
18711;SDS011;9485;49.386;8.674;2023-12-04T19:35:19;8.17;;;5.83;;
18711;SDS011;9485;49.386;8.674;2023-12-04T19:40:41;6.53;;;5.40;;
18711;SDS011;9485;49.386;8.674;2023-12-04T19:46:02;7.80;;;5.77;;
18711;SDS011;9485;49.386;8.674;2023-12-04T19:51:23;6.40;;;5.50;;
18711;SDS011;9485;49.386;8.674;2023-12-04T19:56:46;7.30;;;4.87;;
18711;SDS011;9485;49.386;8.674;2023-12-04T20:02:07;6.03;;;5.07;;
18711;SDS011;9485;49.386;8.674;2023-12-04T20:07:28;6.57;;;5.10;;
18711;SDS011;9485;49.386;8.674;2023-12-04T20:12:50;8.03;;;6.03;;
18711;SDS011;9485;49.386;8.674;2023-12-04T20:18:11;7.37;;;5.73;;
18711;SDS011;9485;49.386;8.674;2023-12-04T20:23:31;6.40;;;4.60;;
18711;SDS011;9485;49.386;8.674;2023-12-04T20:28:53;5.83;;;4.67;;
18711;SDS011;9485;49.386;8.674;2023-12-04T20:34:14;7.17;;;5.63;;
18711;SDS011;9485;49.386;8.674;2023-12-04T20:39:35;7.13;;;5.83;;
18711;SDS011;9485;49.386;8.674;2023-12-04T20:44:59;6.93;;;5.23;;
18711;SDS011;9485;49.386;8.674;2023-12-04T20:50:20;8.40;;;6.23;;
18711;SDS011;9485;49.386;8.674;2023-12-04T20:55:42;8.00;;;5.53;;
18711;SDS011;9485;49.386;8.674;2023-12-04T21:01:06;8.23;;;5.90;;
18711;SDS011;9485;49.386;8.674;2023-12-04T21:06:26;9.90;;;7.27;;
18711;SDS011;9485;49.386;8.674;2023-12-04T21:11:47;9.63;;;6.40;;
18711;SDS011;9485;49.386;8.674;2023-12-04T21:17:09;8.20;;;6.77;;
18711;SDS011;9485;49.386;8.674;2023-12-04T21:22:30;9.90;;;5.87;;
18711;SDS011;9485;49.386;8.674;2023-12-04T21:27:51;7.47;;;5.30;;
18711;SDS011;9485;49.386;8.674;2023-12-04T21:33:13;10.23;;;6.27;;
18711;SDS011;9485;49.386;8.674;2023-12-04T21:38:35;7.67;;;5.63;;
18711;SDS011;9485;49.386;8.674;2023-12-04T21:43:56;7.70;;;6.03;;
18711;SDS011;9485;49.386;8.674;2023-12-04T21:49:19;10.00;;;6.10;;
18711;SDS011;9485;49.386;8.674;2023-12-04T21:54:39;7.60;;;5.93;;
18711;SDS011;9485;49.386;8.674;2023-12-04T21:59:59;9.70;;;6.20;;
18711;SDS011;9485;49.386;8.674;2023-12-04T22:05:25;7.70;;;5.53;;
18711;SDS011;9485;49.386;8.674;2023-12-04T22:10:46;8.30;;;5.90;;
18711;SDS011;9485;49.386;8.674;2023-12-04T22:16:07;7.97;;;5.83;;
18711;SDS011;9485;49.386;8.674;2023-12-04T22:21:29;7.87;;;5.73;;
18711;SDS011;9485;49.386;8.674;2023-12-04T22:26:50;7.57;;;5.57;;
18711;SDS011;9485;49.386;8.674;2023-12-04T22:32:10;7.70;;;6.07;;
18711;SDS011;9485;49.386;8.674;2023-12-04T22:37:32;6.40;;;4.97;;
18711;SDS011;9485;49.386;8.674;2023-12-04T22:42:55;6.97;;;5.33;;
18711;SDS011;9485;49.386;8.674;2023-12-04T22:48:16;6.77;;;5.13;;
18711;SDS011;9485;49.386;8.674;2023-12-04T22:53:37;7.43;;;5.10;;
18711;SDS011;9485;49.386;8.674;2023-12-04T22:58:58;7.97;;;5.80;;
18711;SDS011;9485;49.386;8.674;2023-12-04T23:04:19;7.87;;;5.20;;
18711;SDS011;9485;49.386;8.674;2023-12-04T23:09:42;7.90;;;5.87;;
18711;SDS011;9485;49.386;8.674;2023-12-04T23:15:02;7.67;;;5.13;;
18711;SDS011;9485;49.386;8.674;2023-12-04T23:20:24;6.43;;;5.63;;
18711;SDS011;9485;49.386;8.674;2023-12-04T23:25:46;6.83;;;5.07;;
18711;SDS011;9485;49.386;8.674;2023-12-04T23:31:07;6.07;;;4.70;;
18711;SDS011;9485;49.386;8.674;2023-12-04T23:36:27;5.53;;;4.57;;
18711;SDS011;9485;49.386;8.674;2023-12-04T23:41:50;6.37;;;4.80;;
18711;SDS011;9485;49.386;8.674;2023-12-04T23:47:13;6.43;;;4.40;;
18711;SDS011;9485;49.386;8.674;2023-12-04T23:52:33;5.17;;;3.70;;
18711;SDS011;9485;49.386;8.674;2023-12-04T23:57:56;6.03;;;4.00;;
